sensor_id;sensor_type;location;lat;lon;timestamp;P1;durP1;ratioP1;P2;durP2;ratioP2
15915;SDS011;8057;47.830;-3.870;2022-08-19T00:05:27;7.90;;;4.90;;
15915;SDS011;8057;47.830;-3.870;2022-08-19T00:15:56;8.80;;;5.40;;
15915;SDS011;8057;47.830;-3.870;2022-08-19T00:20:55;8.67;;;5.73;;
15915;SDS011;8057;47.830;-3.870;2022-08-19T00:26:09;5.63;;;5.10;;
15915;SDS011;8057;47.830;-3.870;2022-08-19T00:51:58;8.93;;;5.70;;
15915;SDS011;8057;47.830;-3.870;2022-08-19T00:56:28;10.40;;;6.13;;
15915;SDS011;8057;47.830;-3.870;2022-08-19T01:01:18;8.07;;;5.90;;
15915;SDS011;8057;47.830;-3.870;2022-08-19T01:10:30;8.00;;;5.47;;
15915;SDS011;8057;47.830;-3.870;2022-08-19T01:15:09;13.47;;;6.93;;
15915;SDS011;8057;47.830;-3.870;2022-08-19T01:19:27;9.03;;;6.20;;
15915;SDS011;8057;47.830;-3.870;2022-08-19T01:24:35;11.37;;;5.90;;
15915;SDS011;8057;47.830;-3.870;2022-08-19T01:29:09;9.77;;;5.67;;
15915;SDS011;8057;47.830;-3.870;2022-08-19T01:38:55;10.37;;;6.40;;
15915;SDS011;8057;47.830;-3.870;2022-08-19T01:59:22;12.87;;;7.13;;
15915;SDS011;8057;47.830;-3.870;2022-08-19T02:03:40;13.63;;;7.50;;
15915;SDS011;8057;47.830;-3.870;2022-08-19T02:08:18;11.30;;;6.50;;
15915;SDS011;8057;47.830;-3.870;2022-08-19T02:13:15;10.40;;;6.63;;
15915;SDS011;8057;47.830;-3.870;2022-08-19T02:27:59;12.67;;;7.37;;
15915;SDS011;8057;47.830;-3.870;2022-08-19T02:32:27;11.90;;;6.60;;
15915;SDS011;8057;47.830;-3.870;2022-08-19T02:36:56;13.57;;;7.03;;
15915;SDS011;8057;47.830;-3.870;2022-08-19T02:41:15;11.77;;;7.17;;
15915;SDS011;8057;47.830;-3.870;2022-08-19T02:50:32;14.33;;;6.60;;
15915;SDS011;8057;47.830;-3.870;2022-08-19T02:55:18;12.10;;;5.80;;
15915;SDS011;8057;47.830;-3.870;2022-08-19T02:59:53;10.93;;;6.33;;
15915;SDS011;8057;47.830;-3.870;2022-08-19T03:14:39;10.10;;;5.93;;
15915;SDS011;8057;47.830;-3.870;2022-08-19T03:19:05;8.13;;;5.33;;
15915;SDS011;8057;47.830;-3.870;2022-08-19T03:24:02;10.90;;;5.47;;
15915;SDS011;8057;47.830;-3.870;2022-08-19T03:29:43;11.53;;;6.30;;
15915;SDS011;8057;47.830;-3.870;2022-08-19T03:34:42;12.17;;;6.97;;
15915;SDS011;8057;47.830;-3.870;2022-08-19T03:38:53;13.50;;;6.53;;
15915;SDS011;8057;47.830;-3.870;2022-08-19T03:43:22;18.33;;;6.93;;
15915;SDS011;8057;47.830;-3.870;2022-08-19T03:47:52;11.43;;;6.73;;
15915;SDS011;8057;47.830;-3.870;2022-08-19T03:52:47;12.10;;;6.27;;
15915;SDS011;8057;47.830;-3.870;2022-08-19T03:58:16;11.27;;;6.50;;
15915;SDS011;8057;47.830;-3.870;2022-08-19T04:02:28;13.77;;;6.50;;
15915;SDS011;8057;47.830;-3.870;2022-08-19T04:12:23;13.60;;;6.63;;
15915;SDS011;8057;47.830;-3.870;2022-08-19T04:16:35;12.53;;;7.10;;
15915;SDS011;8057;47.830;-3.870;2022-08-19T04:20:56;11.40;;;6.03;;
15915;SDS011;8057;47.830;-3.870;2022-08-19T04:25:06;11.60;;;6.03;;
15915;SDS011;8057;47.830;-3.870;2022-08-19T04:34:36;12.63;;;6.33;;
15915;SDS011;8057;47.830;-3.870;2022-08-19T04:39:24;10.17;;;5.33;;
15915;SDS011;8057;47.830;-3.870;2022-08-19T04:44:15;10.40;;;5.20;;
15915;SDS011;8057;47.830;-3.870;2022-08-19T04:48:52;14.73;;;6.03;;
15915;SDS011;8057;47.830;-3.870;2022-08-19T05:02:27;13.57;;;5.73;;
15915;SDS011;8057;47.830;-3.870;2022-08-19T05:07:31;11.20;;;5.40;;
15915;SDS011;8057;47.830;-3.870;2022-08-19T05:11:49;15.27;;;5.40;;
15915;SDS011;8057;47.830;-3.870;2022-08-19T05:17:02;10.60;;;5.90;;
15915;SDS011;8057;47.830;-3.870;2022-08-19T05:21:37;11.77;;;5.57;;
15915;SDS011;8057;47.830;-3.870;2022-08-19T05:30:59;12.20;;;5.33;;
15915;SDS011;8057;47.830;-3.870;2022-08-19T05:35:34;14.27;;;6.17;;
15915;SDS011;8057;47.830;-3.870;2022-08-19T05:40:04;11.43;;;5.43;;
15915;SDS011;8057;47.830;-3.870;2022-08-19T05:44:18;11.70;;;5.00;;
15915;SDS011;8057;47.830;-3.870;2022-08-19T05:48:40;11.40;;;4.57;;
15915;SDS011;8057;47.830;-3.870;2022-08-19T05:52:58;15.17;;;4.50;;
15915;SDS011;8057;47.830;-3.870;2022-08-19T05:57:09;18.30;;;5.33;;
15915;SDS011;8057;47.830;-3.870;2022-08-19T06:01:26;15.00;;;5.30;;
15915;SDS011;8057;47.830;-3.870;2022-08-19T06:05:56;11.33;;;4.53;;
15915;SDS011;8057;47.830;-3.870;2022-08-19T06:10:30;13.50;;;4.70;;
15915;SDS011;8057;47.830;-3.870;2022-08-19T06:14:58;14.10;;;4.33;;
15915;SDS011;8057;47.830;-3.870;2022-08-19T06:19:14;10.30;;;4.63;;
15915;SDS011;8057;47.830;-3.870;2022-08-19T06:23:37;9.47;;;4.30;;
15915;SDS011;8057;47.830;-3.870;2022-08-19T06:27:49;12.70;;;5.17;;
15915;SDS011;8057;47.830;-3.870;2022-08-19T06:32:20;12.73;;;5.23;;
15915;SDS011;8057;47.830;-3.870;2022-08-19T06:36:52;13.60;;;4.67;;
15915;SDS011;8057;47.830;-3.870;2022-08-19T06:41:02;11.33;;;4.77;;
15915;SDS011;8057;47.830;-3.870;2022-08-19T06:45:16;9.23;;;4.33;;
15915;SDS011;8057;47.830;-3.870;2022-08-19T06:49:45;8.80;;;3.90;;
15915;SDS011;8057;47.830;-3.870;2022-08-19T06:54:13;11.83;;;4.37;;
15915;SDS011;8057;47.830;-3.870;2022-08-19T06:58:25;13.00;;;4.23;;
15915;SDS011;8057;47.830;-3.870;2022-08-19T07:07:49;15.67;;;4.33;;
15915;SDS011;8057;47.830;-3.870;2022-08-19T07:13:10;9.37;;;4.20;;
15915;SDS011;8057;47.830;-3.870;2022-08-19T08:24:17;8.90;;;2.90;;
15915;SDS011;8057;47.830;-3.870;2022-08-19T08:37:28;8.93;;;3.13;;
15915;SDS011;8057;47.830;-3.870;2022-08-19T08:42:31;7.63;;;3.20;;
15915;SDS011;8057;47.830;-3.870;2022-08-19T08:53:19;8.27;;;2.90;;
15915;SDS011;8057;47.830;-3.870;2022-08-19T08:57:47;9.30;;;3.60;;
15915;SDS011;8057;47.830;-3.870;2022-08-19T09:02:34;8.93;;;3.47;;
15915;SDS011;8057;47.830;-3.870;2022-08-19T09:07:01;9.87;;;3.30;;
15915;SDS011;8057;47.830;-3.870;2022-08-19T09:12:26;7.33;;;3.30;;
15915;SDS011;8057;47.830;-3.870;2022-08-19T09:50:35;9.90;;;2.30;;
15915;SDS011;8057;47.830;-3.870;2022-08-19T09:54:59;6.37;;;2.30;;
15915;SDS011;8057;47.830;-3.870;2022-08-19T11:04:21;11.43;;;3.37;;
15915;SDS011;8057;47.830;-3.870;2022-08-19T11:08:35;8.87;;;3.00;;
15915;SDS011;8057;47.830;-3.870;2022-08-19T11:12:45;7.20;;;2.73;;
15915;SDS011;8057;47.830;-3.870;2022-08-19T11:16:57;10.53;;;3.53;;
15915;SDS011;8057;47.830;-3.870;2022-08-19T11:21:11;12.20;;;3.70;;
15915;SDS011;8057;47.830;-3.870;2022-08-19T11:25:23;8.27;;;3.37;;
15915;SDS011;8057;47.830;-3.870;2022-08-19T11:29:33;12.67;;;3.33;;
15915;SDS011;8057;47.830;-3.870;2022-08-19T11:33:44;10.40;;;2.97;;
15915;SDS011;8057;47.830;-3.870;2022-08-19T11:37:54;10.70;;;3.50;;
15915;SDS011;8057;47.830;-3.870;2022-08-19T11:42:05;12.13;;;3.57;;
15915;SDS011;8057;47.830;-3.870;2022-08-19T11:46:37;8.90;;;3.00;;
15915;SDS011;8057;47.830;-3.870;2022-08-19T11:50:48;10.57;;;3.07;;
15915;SDS011;8057;47.830;-3.870;2022-08-19T11:54:58;8.87;;;3.27;;
15915;SDS011;8057;47.830;-3.870;2022-08-19T11:59:07;8.67;;;3.00;;
15915;SDS011;8057;47.830;-3.870;2022-08-19T12:03:20;8.03;;;2.77;;
15915;SDS011;8057;47.830;-3.870;2022-08-19T12:07:33;8.40;;;2.93;;
15915;SDS011;8057;47.830;-3.870;2022-08-19T12:11:42;5.83;;;2.13;;
15915;SDS011;8057;47.830;-3.870;2022-08-19T12:15:52;5.20;;;1.70;;
15915;SDS011;8057;47.830;-3.870;2022-08-19T12:20:02;4.93;;;1.73;;
15915;SDS011;8057;47.830;-3.870;2022-08-19T12:24:13;3.47;;;1.47;;
15915;SDS011;8057;47.830;-3.870;2022-08-19T12:28:32;6.83;;;1.53;;
15915;SDS011;8057;47.830;-3.870;2022-08-19T12:32:41;2.23;;;1.20;;
15915;SDS011;8057;47.830;-3.870;2022-08-19T12:36:50;0.90;;;0.87;;
15915;SDS011;8057;47.830;-3.870;2022-08-19T12:41:02;0.80;;;0.80;;
15915;SDS011;8057;47.830;-3.870;2022-08-19T12:45:13;0.60;;;0.50;;
15915;SDS011;8057;47.830;-3.870;2022-08-19T12:49:33;1.50;;;0.87;;
15915;SDS011;8057;47.830;-3.870;2022-08-19T12:54:01;0.70;;;0.70;;
15915;SDS011;8057;47.830;-3.870;2022-08-19T12:58:13;0.80;;;0.80;;
15915;SDS011;8057;47.830;-3.870;2022-08-19T13:07:00;0.70;;;0.50;;
15915;SDS011;8057;47.830;-3.870;2022-08-19T13:50:45;1.03;;;0.70;;
15915;SDS011;8057;47.830;-3.870;2022-08-19T13:55:09;1.90;;;0.87;;
15915;SDS011;8057;47.830;-3.870;2022-08-19T14:04:43;1.93;;;0.83;;
15915;SDS011;8057;47.830;-3.870;2022-08-19T15:20:54;1.43;;;1.10;;
15915;SDS011;8057;47.830;-3.870;2022-08-19T15:45:43;4.33;;;1.27;;
15915;SDS011;8057;47.830;-3.870;2022-08-19T15:50:23;2.77;;;1.20;;
15915;SDS011;8057;47.830;-3.870;2022-08-19T15:55:25;6.03;;;1.80;;
15915;SDS011;8057;47.830;-3.870;2022-08-19T16:00:21;4.17;;;1.70;;
15915;SDS011;8057;47.830;-3.870;2022-08-19T16:05:12;3.47;;;1.47;;
15915;SDS011;8057;47.830;-3.870;2022-08-19T16:20:05;4.23;;;1.80;;
15915;SDS011;8057;47.830;-3.870;2022-08-19T16:24:35;3.87;;;1.77;;
15915;SDS011;8057;47.830;-3.870;2022-08-19T16:28:52;5.07;;;1.80;;
15915;SDS011;8057;47.830;-3.870;2022-08-19T16:33:07;5.73;;;2.00;;
15915;SDS011;8057;47.830;-3.870;2022-08-19T16:37:31;3.37;;;1.83;;
15915;SDS011;8057;47.830;-3.870;2022-08-19T16:41:44;6.33;;;2.30;;
15915;SDS011;8057;47.830;-3.870;2022-08-19T16:45:54;6.60;;;2.30;;
15915;SDS011;8057;47.830;-3.870;2022-08-19T16:50:04;6.37;;;2.37;;
15915;SDS011;8057;47.830;-3.870;2022-08-19T17:21:54;9.47;;;2.43;;
15915;SDS011;8057;47.830;-3.870;2022-08-19T17:26:45;6.43;;;2.23;;
15915;SDS011;8057;47.830;-3.870;2022-08-19T17:31:43;6.07;;;2.47;;
15915;SDS011;8057;47.830;-3.870;2022-08-19T17:36:20;9.67;;;3.03;;
15915;SDS011;8057;47.830;-3.870;2022-08-19T17:40:33;7.83;;;2.57;;
15915;SDS011;8057;47.830;-3.870;2022-08-19T17:45:01;6.67;;;2.13;;
15915;SDS011;8057;47.830;-3.870;2022-08-19T17:49:15;4.83;;;2.33;;
15915;SDS011;8057;47.830;-3.870;2022-08-19T17:53:27;7.63;;;2.83;;
15915;SDS011;8057;47.830;-3.870;2022-08-19T17:57:37;7.50;;;2.70;;
15915;SDS011;8057;47.830;-3.870;2022-08-19T19:41:44;6.73;;;2.57;;
15915;SDS011;8057;47.830;-3.870;2022-08-19T19:46:52;7.43;;;2.47;;
15915;SDS011;8057;47.830;-3.870;2022-08-19T20:11:25;6.23;;;2.50;;
15915;SDS011;8057;47.830;-3.870;2022-08-19T20:21:42;8.63;;;2.43;;
15915;SDS011;8057;47.830;-3.870;2022-08-19T20:25:57;5.87;;;2.30;;
15915;SDS011;8057;47.830;-3.870;2022-08-19T20:30:07;10.07;;;2.50;;
15915;SDS011;8057;47.830;-3.870;2022-08-19T20:34:46;7.67;;;2.63;;
15915;SDS011;8057;47.830;-3.870;2022-08-19T20:39:01;7.80;;;2.43;;
15915;SDS011;8057;47.830;-3.870;2022-08-19T20:43:25;9.17;;;2.63;;
15915;SDS011;8057;47.830;-3.870;2022-08-19T20:47:35;7.43;;;2.93;;
15915;SDS011;8057;47.830;-3.870;2022-08-19T20:51:44;7.33;;;2.70;;
15915;SDS011;8057;47.830;-3.870;2022-08-19T20:55:57;8.60;;;2.93;;
15915;SDS011;8057;47.830;-3.870;2022-08-19T21:00:07;11.10;;;2.87;;
15915;SDS011;8057;47.830;-3.870;2022-08-19T21:04:18;9.83;;;2.67;;
15915;SDS011;8057;47.830;-3.870;2022-08-19T21:08:28;9.07;;;2.70;;
15915;SDS011;8057;47.830;-3.870;2022-08-19T21:12:39;5.50;;;2.50;;
15915;SDS011;8057;47.830;-3.870;2022-08-19T21:16:50;8.47;;;2.87;;
15915;SDS011;8057;47.830;-3.870;2022-08-19T21:20:59;7.20;;;2.33;;
15915;SDS011;8057;47.830;-3.870;2022-08-19T21:26:04;10.50;;;3.10;;
15915;SDS011;8057;47.830;-3.870;2022-08-19T21:30:16;8.63;;;2.43;;
15915;SDS011;8057;47.830;-3.870;2022-08-19T21:34:25;7.83;;;2.13;;
15915;SDS011;8057;47.830;-3.870;2022-08-19T21:38:35;8.63;;;2.80;;
15915;SDS011;8057;47.830;-3.870;2022-08-19T21:42:45;8.67;;;2.67;;
15915;SDS011;8057;47.830;-3.870;2022-08-19T21:46:56;9.27;;;2.80;;
15915;SDS011;8057;47.830;-3.870;2022-08-19T21:51:06;8.03;;;2.67;;
15915;SDS011;8057;47.830;-3.870;2022-08-19T21:55:15;8.70;;;2.50;;
15915;SDS011;8057;47.830;-3.870;2022-08-19T21:59:25;11.47;;;3.17;;
15915;SDS011;8057;47.830;-3.870;2022-08-19T22:03:37;8.47;;;2.47;;
15915;SDS011;8057;47.830;-3.870;2022-08-19T22:07:47;6.50;;;2.53;;
15915;SDS011;8057;47.830;-3.870;2022-08-19T22:11:57;7.33;;;2.63;;
15915;SDS011;8057;47.830;-3.870;2022-08-19T22:16:06;11.23;;;2.93;;
15915;SDS011;8057;47.830;-3.870;2022-08-19T22:20:19;10.40;;;3.07;;
15915;SDS011;8057;47.830;-3.870;2022-08-19T22:24:30;6.70;;;2.73;;
15915;SDS011;8057;47.830;-3.870;2022-08-19T22:28:39;6.23;;;2.50;;
15915;SDS011;8057;47.830;-3.870;2022-08-19T22:32:51;7.70;;;2.33;;
15915;SDS011;8057;47.830;-3.870;2022-08-19T22:37:04;7.60;;;2.50;;
15915;SDS011;8057;47.830;-3.870;2022-08-19T22:41:15;8.13;;;2.50;;
15915;SDS011;8057;47.830;-3.870;2022-08-19T22:45:26;8.00;;;2.70;;
15915;SDS011;8057;47.830;-3.870;2022-08-19T22:49:36;11.87;;;3.03;;
15915;SDS011;8057;47.830;-3.870;2022-08-19T22:53:47;8.90;;;2.47;;
15915;SDS011;8057;47.830;-3.870;2022-08-19T22:57:57;11.13;;;2.90;;
15915;SDS011;8057;47.830;-3.870;2022-08-19T23:02:07;7.97;;;2.23;;
15915;SDS011;8057;47.830;-3.870;2022-08-19T23:06:17;6.97;;;2.40;;
15915;SDS011;8057;47.830;-3.870;2022-08-19T23:10:28;7.17;;;3.03;;
15915;SDS011;8057;47.830;-3.870;2022-08-19T23:14:37;5.63;;;2.73;;
15915;SDS011;8057;47.830;-3.870;2022-08-19T23:18:47;7.77;;;3.17;;
15915;SDS011;8057;47.830;-3.870;2022-08-19T23:23:02;8.20;;;3.27;;
15915;SDS011;8057;47.830;-3.870;2022-08-19T23:27:14;8.27;;;3.47;;
15915;SDS011;8057;47.830;-3.870;2022-08-19T23:31:49;7.27;;;2.70;;
15915;SDS011;8057;47.830;-3.870;2022-08-19T23:35:59;6.30;;;2.37;;
15915;SDS011;8057;47.830;-3.870;2022-08-19T23:40:12;8.60;;;3.40;;
15915;SDS011;8057;47.830;-3.870;2022-08-19T23:44:24;8.23;;;3.47;;
15915;SDS011;8057;47.830;-3.870;2022-08-19T23:48:34;7.63;;;3.00;;
15915;SDS011;8057;47.830;-3.870;2022-08-19T23:52:45;5.70;;;2.77;;
15915;SDS011;8057;47.830;-3.870;2022-08-19T23:56:55;5.27;;;2.50;;
